sensor_id;sensor_type;location;lat;lon;timestamp;temperature;humidity
8214;DHT22;4148;47.974;7.824;2023-07-31T00:01:22;17.00;99.90
8214;DHT22;4148;47.974;7.824;2023-07-31T00:03:50;17.00;99.90
8214;DHT22;4148;47.974;7.824;2023-07-31T00:06:18;17.00;99.90
8214;DHT22;4148;47.974;7.824;2023-07-31T00:08:46;16.80;99.90
8214;DHT22;4148;47.974;7.824;2023-07-31T00:11:14;16.80;99.90
8214;DHT22;4148;47.974;7.824;2023-07-31T00:13:42;16.80;99.90
8214;DHT22;4148;47.974;7.824;2023-07-31T00:16:10;16.70;99.90
8214;DHT22;4148;47.974;7.824;2023-07-31T00:18:39;16.50;99.90
8214;DHT22;4148;47.974;7.824;2023-07-31T00:21:07;16.60;99.90
8214;DHT22;4148;47.974;7.824;2023-07-31T00:23:34;16.70;99.90
8214;DHT22;4148;47.974;7.824;2023-07-31T00:26:02;16.70;99.90
8214;DHT22;4148;47.974;7.824;2023-07-31T00:28:30;16.50;99.90
8214;DHT22;4148;47.974;7.824;2023-07-31T00:30:58;16.50;99.90
8214;DHT22;4148;47.974;7.824;2023-07-31T00:33:26;16.40;99.90
8214;DHT22;4148;47.974;7.824;2023-07-31T00:35:55;16.40;99.90
8214;DHT22;4148;47.974;7.824;2023-07-31T00:38:23;16.30;99.90
8214;DHT22;4148;47.974;7.824;2023-07-31T00:40:51;16.20;99.90
8214;DHT22;4148;47.974;7.824;2023-07-31T00:43:18;16.30;99.90
8214;DHT22;4148;47.974;7.824;2023-07-31T00:45:46;16.30;99.90
8214;DHT22;4148;47.974;7.824;2023-07-31T00:48:14;16.20;99.90
8214;DHT22;4148;47.974;7.824;2023-07-31T00:50:42;16.30;99.90
8214;DHT22;4148;47.974;7.824;2023-07-31T00:53:11;16.40;99.90
8214;DHT22;4148;47.974;7.824;2023-07-31T00:55:40;16.30;99.90
8214;DHT22;4148;47.974;7.824;2023-07-31T00:58:08;16.30;99.90
8214;DHT22;4148;47.974;7.824;2023-07-31T01:00:36;16.30;99.90
8214;DHT22;4148;47.974;7.824;2023-07-31T01:03:04;16.20;99.90
8214;DHT22;4148;47.974;7.824;2023-07-31T01:05:39;16.20;99.90
8214;DHT22;4148;47.974;7.824;2023-07-31T01:08:18;16.10;99.90
8214;DHT22;4148;47.974;7.824;2023-07-31T01:10:51;16.00;99.90
8214;DHT22;4148;47.974;7.824;2023-07-31T01:13:22;15.80;99.90
8214;DHT22;4148;47.974;7.824;2023-07-31T01:15:50;15.80;99.90
8214;DHT22;4148;47.974;7.824;2023-07-31T01:18:18;15.80;99.90
8214;DHT22;4148;47.974;7.824;2023-07-31T01:20:54;15.80;99.90
8214;DHT22;4148;47.974;7.824;2023-07-31T01:23:40;15.80;99.90
8214;DHT22;4148;47.974;7.824;2023-07-31T01:26:16;15.70;99.90
8214;DHT22;4148;47.974;7.824;2023-07-31T01:28:50;15.70;99.90
8214;DHT22;4148;47.974;7.824;2023-07-31T01:31:24;15.60;99.90
8214;DHT22;4148;47.974;7.824;2023-07-31T01:33:54;15.70;99.90
8214;DHT22;4148;47.974;7.824;2023-07-31T01:36:24;15.80;99.90
8214;DHT22;4148;47.974;7.824;2023-07-31T01:38:52;15.80;99.90
8214;DHT22;4148;47.974;7.824;2023-07-31T01:41:21;15.70;99.90
8214;DHT22;4148;47.974;7.824;2023-07-31T01:43:49;15.80;99.90
8214;DHT22;4148;47.974;7.824;2023-07-31T01:46:17;15.90;99.90
8214;DHT22;4148;47.974;7.824;2023-07-31T01:48:45;15.80;99.90
8214;DHT22;4148;47.974;7.824;2023-07-31T01:51:13;15.80;99.90
8214;DHT22;4148;47.974;7.824;2023-07-31T01:53:41;15.80;99.90
8214;DHT22;4148;47.974;7.824;2023-07-31T01:56:08;15.80;99.90
8214;DHT22;4148;47.974;7.824;2023-07-31T01:58:38;15.80;99.90
8214;DHT22;4148;47.974;7.824;2023-07-31T02:01:05;15.80;99.90
8214;DHT22;4148;47.974;7.824;2023-07-31T02:03:33;15.80;99.90
8214;DHT22;4148;47.974;7.824;2023-07-31T02:06:01;15.80;99.90
8214;DHT22;4148;47.974;7.824;2023-07-31T02:08:29;15.80;99.90
8214;DHT22;4148;47.974;7.824;2023-07-31T02:10:57;15.80;99.90
8214;DHT22;4148;47.974;7.824;2023-07-31T02:13:25;15.90;99.90
8214;DHT22;4148;47.974;7.824;2023-07-31T02:15:54;15.70;99.90
8214;DHT22;4148;47.974;7.824;2023-07-31T02:18:22;15.70;99.90
8214;DHT22;4148;47.974;7.824;2023-07-31T02:20:50;15.70;99.90
8214;DHT22;4148;47.974;7.824;2023-07-31T02:23:19;15.60;99.90
8214;DHT22;4148;47.974;7.824;2023-07-31T02:25:47;15.60;99.90
8214;DHT22;4148;47.974;7.824;2023-07-31T02:28:15;15.60;99.90
8214;DHT22;4148;47.974;7.824;2023-07-31T02:30:44;15.60;99.90
8214;DHT22;4148;47.974;7.824;2023-07-31T02:33:14;15.60;99.90
8214;DHT22;4148;47.974;7.824;2023-07-31T02:35:42;15.50;99.90
8214;DHT22;4148;47.974;7.824;2023-07-31T02:38:10;15.50;99.90
8214;DHT22;4148;47.974;7.824;2023-07-31T02:40:39;15.60;99.90
8214;DHT22;4148;47.974;7.824;2023-07-31T02:43:07;15.60;99.90
8214;DHT22;4148;47.974;7.824;2023-07-31T02:45:35;15.60;99.90
8214;DHT22;4148;47.974;7.824;2023-07-31T02:48:03;15.50;99.90
8214;DHT22;4148;47.974;7.824;2023-07-31T02:50:33;15.50;99.90
8214;DHT22;4148;47.974;7.824;2023-07-31T02:53:01;15.50;99.90
8214;DHT22;4148;47.974;7.824;2023-07-31T02:55:29;15.50;99.90
8214;DHT22;4148;47.974;7.824;2023-07-31T02:57:57;15.50;99.90
8214;DHT22;4148;47.974;7.824;2023-07-31T03:00:25;15.50;99.90
8214;DHT22;4148;47.974;7.824;2023-07-31T03:02:53;15.40;99.90
8214;DHT22;4148;47.974;7.824;2023-07-31T03:05:21;15.40;99.90
8214;DHT22;4148;47.974;7.824;2023-07-31T03:07:50;15.40;99.90
8214;DHT22;4148;47.974;7.824;2023-07-31T03:10:18;15.50;99.90
8214;DHT22;4148;47.974;7.824;2023-07-31T03:12:47;15.50;99.90
8214;DHT22;4148;47.974;7.824;2023-07-31T03:15:15;15.50;99.90
8214;DHT22;4148;47.974;7.824;2023-07-31T03:17:42;15.50;99.90
8214;DHT22;4148;47.974;7.824;2023-07-31T03:20:11;15.50;99.90
8214;DHT22;4148;47.974;7.824;2023-07-31T03:22:39;15.50;99.90
8214;DHT22;4148;47.974;7.824;2023-07-31T03:25:09;15.50;99.90
8214;DHT22;4148;47.974;7.824;2023-07-31T03:27:37;15.40;99.90
8214;DHT22;4148;47.974;7.824;2023-07-31T03:30:07;15.40;99.90
8214;DHT22;4148;47.974;7.824;2023-07-31T03:32:35;15.30;99.90
8214;DHT22;4148;47.974;7.824;2023-07-31T03:35:04;15.30;99.90
8214;DHT22;4148;47.974;7.824;2023-07-31T03:37:32;15.40;99.90
8214;DHT22;4148;47.974;7.824;2023-07-31T03:40:00;15.30;99.90
8214;DHT22;4148;47.974;7.824;2023-07-31T03:42:30;15.40;99.90
8214;DHT22;4148;47.974;7.824;2023-07-31T03:44:58;15.40;99.90
8214;DHT22;4148;47.974;7.824;2023-07-31T03:47:26;15.30;99.90
8214;DHT22;4148;47.974;7.824;2023-07-31T03:49:54;15.30;99.90
8214;DHT22;4148;47.974;7.824;2023-07-31T03:52:22;15.20;99.90
8214;DHT22;4148;47.974;7.824;2023-07-31T03:54:49;15.20;99.90
8214;DHT22;4148;47.974;7.824;2023-07-31T03:57:17;15.10;99.90
8214;DHT22;4148;47.974;7.824;2023-07-31T03:59:49;15.20;99.90
8214;DHT22;4148;47.974;7.824;2023-07-31T04:02:17;15.20;99.90
8214;DHT22;4148;47.974;7.824;2023-07-31T04:04:46;15.20;99.90
8214;DHT22;4148;47.974;7.824;2023-07-31T04:07:13;15.20;99.90
8214;DHT22;4148;47.974;7.824;2023-07-31T04:09:41;15.20;99.90
8214;DHT22;4148;47.974;7.824;2023-07-31T04:12:09;15.30;99.90
8214;DHT22;4148;47.974;7.824;2023-07-31T04:14:37;15.30;99.90
8214;DHT22;4148;47.974;7.824;2023-07-31T04:17:06;15.40;99.90
8214;DHT22;4148;47.974;7.824;2023-07-31T04:19:38;15.40;99.90
8214;DHT22;4148;47.974;7.824;2023-07-31T04:22:05;15.50;99.90
8214;DHT22;4148;47.974;7.824;2023-07-31T04:24:33;15.50;99.90
8214;DHT22;4148;47.974;7.824;2023-07-31T04:27:01;15.50;99.90
8214;DHT22;4148;47.974;7.824;2023-07-31T04:29:29;15.50;99.90
8214;DHT22;4148;47.974;7.824;2023-07-31T04:31:57;15.40;99.90
8214;DHT22;4148;47.974;7.824;2023-07-31T04:34:26;15.40;99.90
8214;DHT22;4148;47.974;7.824;2023-07-31T04:36:54;15.40;99.90
8214;DHT22;4148;47.974;7.824;2023-07-31T04:39:22;15.50;99.90
8214;DHT22;4148;47.974;7.824;2023-07-31T04:41:50;15.50;99.90
8214;DHT22;4148;47.974;7.824;2023-07-31T04:44:18;15.70;99.90
8214;DHT22;4148;47.974;7.824;2023-07-31T04:46:45;16.00;99.90
8214;DHT22;4148;47.974;7.824;2023-07-31T04:49:13;16.10;99.90
8214;DHT22;4148;47.974;7.824;2023-07-31T04:51:43;16.20;99.90
8214;DHT22;4148;47.974;7.824;2023-07-31T04:54:10;16.20;99.90
8214;DHT22;4148;47.974;7.824;2023-07-31T04:56:41;16.20;99.90
8214;DHT22;4148;47.974;7.824;2023-07-31T04:59:09;16.30;99.90
8214;DHT22;4148;47.974;7.824;2023-07-31T05:01:37;16.30;99.90
8214;DHT22;4148;47.974;7.824;2023-07-31T05:04:05;16.30;99.90
8214;DHT22;4148;47.974;7.824;2023-07-31T05:06:32;16.30;99.90
8214;DHT22;4148;47.974;7.824;2023-07-31T05:09:02;16.30;99.90
8214;DHT22;4148;47.974;7.824;2023-07-31T05:11:30;16.40;99.90
8214;DHT22;4148;47.974;7.824;2023-07-31T05:13:57;16.50;99.90
8214;DHT22;4148;47.974;7.824;2023-07-31T05:16:25;16.70;99.90
8214;DHT22;4148;47.974;7.824;2023-07-31T05:18:53;16.80;99.90
8214;DHT22;4148;47.974;7.824;2023-07-31T05:21:21;16.90;99.90
8214;DHT22;4148;47.974;7.824;2023-07-31T05:23:49;16.90;99.90
8214;DHT22;4148;47.974;7.824;2023-07-31T05:26:18;17.00;99.90
8214;DHT22;4148;47.974;7.824;2023-07-31T05:28:46;17.00;99.90
8214;DHT22;4148;47.974;7.824;2023-07-31T05:31:14;17.10;99.90
8214;DHT22;4148;47.974;7.824;2023-07-31T05:33:42;17.10;99.90
8214;DHT22;4148;47.974;7.824;2023-07-31T05:36:10;17.10;99.90
8214;DHT22;4148;47.974;7.824;2023-07-31T05:38:37;17.20;99.90
8214;DHT22;4148;47.974;7.824;2023-07-31T05:41:08;17.20;99.90
8214;DHT22;4148;47.974;7.824;2023-07-31T05:43:38;17.30;99.90
8214;DHT22;4148;47.974;7.824;2023-07-31T05:46:06;17.30;99.90
8214;DHT22;4148;47.974;7.824;2023-07-31T05:48:35;17.30;99.90
8214;DHT22;4148;47.974;7.824;2023-07-31T05:51:03;17.30;99.90
8214;DHT22;4148;47.974;7.824;2023-07-31T05:53:31;17.30;99.90
8214;DHT22;4148;47.974;7.824;2023-07-31T05:55:59;17.40;99.90
8214;DHT22;4148;47.974;7.824;2023-07-31T05:58:27;17.50;99.90
8214;DHT22;4148;47.974;7.824;2023-07-31T06:00:56;17.50;99.90
8214;DHT22;4148;47.974;7.824;2023-07-31T06:03:24;17.50;99.90
8214;DHT22;4148;47.974;7.824;2023-07-31T06:05:52;17.50;99.90
8214;DHT22;4148;47.974;7.824;2023-07-31T06:08:19;17.60;99.90
8214;DHT22;4148;47.974;7.824;2023-07-31T06:13:16;17.70;99.90
8214;DHT22;4148;47.974;7.824;2023-07-31T06:15:43;17.70;99.90
8214;DHT22;4148;47.974;7.824;2023-07-31T06:18:13;17.70;99.90
8214;DHT22;4148;47.974;7.824;2023-07-31T06:20:40;17.90;99.90
8214;DHT22;4148;47.974;7.824;2023-07-31T06:23:09;17.90;99.90
8214;DHT22;4148;47.974;7.824;2023-07-31T06:25:36;17.90;99.90
8214;DHT22;4148;47.974;7.824;2023-07-31T06:28:04;18.00;99.90
8214;DHT22;4148;47.974;7.824;2023-07-31T06:30:32;17.90;99.90
8214;DHT22;4148;47.974;7.824;2023-07-31T06:33:00;18.00;99.90
8214;DHT22;4148;47.974;7.824;2023-07-31T06:35:29;18.00;99.90
8214;DHT22;4148;47.974;7.824;2023-07-31T06:37:57;18.00;99.90
8214;DHT22;4148;47.974;7.824;2023-07-31T06:40:25;18.00;99.90
8214;DHT22;4148;47.974;7.824;2023-07-31T06:42:53;18.10;99.90
8214;DHT22;4148;47.974;7.824;2023-07-31T06:45:21;18.20;99.90
8214;DHT22;4148;47.974;7.824;2023-07-31T06:47:49;18.20;99.90
8214;DHT22;4148;47.974;7.824;2023-07-31T06:50:17;18.30;99.90
8214;DHT22;4148;47.974;7.824;2023-07-31T06:52:46;18.30;99.90
8214;DHT22;4148;47.974;7.824;2023-07-31T06:55:18;18.30;99.90
8214;DHT22;4148;47.974;7.824;2023-07-31T06:57:46;18.30;99.90
8214;DHT22;4148;47.974;7.824;2023-07-31T07:00:15;18.30;99.90
8214;DHT22;4148;47.974;7.824;2023-07-31T07:02:43;18.40;99.90
8214;DHT22;4148;47.974;7.824;2023-07-31T07:05:11;18.50;99.90
8214;DHT22;4148;47.974;7.824;2023-07-31T07:07:40;18.70;99.90
8214;DHT22;4148;47.974;7.824;2023-07-31T07:10:09;18.80;99.90
8214;DHT22;4148;47.974;7.824;2023-07-31T07:12:37;18.90;99.90
8214;DHT22;4148;47.974;7.824;2023-07-31T07:15:06;18.90;99.90
8214;DHT22;4148;47.974;7.824;2023-07-31T07:17:34;19.00;99.90
8214;DHT22;4148;47.974;7.824;2023-07-31T07:20:02;19.10;99.90
8214;DHT22;4148;47.974;7.824;2023-07-31T07:22:30;19.20;99.90
8214;DHT22;4148;47.974;7.824;2023-07-31T07:24:58;19.40;99.90
8214;DHT22;4148;47.974;7.824;2023-07-31T07:27:27;19.50;99.90
8214;DHT22;4148;47.974;7.824;2023-07-31T07:29:55;19.50;99.90
8214;DHT22;4148;47.974;7.824;2023-07-31T07:32:23;19.70;99.90
8214;DHT22;4148;47.974;7.824;2023-07-31T07:34:50;19.80;99.90
8214;DHT22;4148;47.974;7.824;2023-07-31T07:37:18;19.90;99.90
8214;DHT22;4148;47.974;7.824;2023-07-31T07:39:46;20.10;99.90
8214;DHT22;4148;47.974;7.824;2023-07-31T07:42:14;20.20;99.90
8214;DHT22;4148;47.974;7.824;2023-07-31T07:44:43;20.40;99.90
8214;DHT22;4148;47.974;7.824;2023-07-31T07:47:12;20.60;99.90
8214;DHT22;4148;47.974;7.824;2023-07-31T07:49:40;20.70;99.90
8214;DHT22;4148;47.974;7.824;2023-07-31T07:52:08;21.00;99.90
8214;DHT22;4148;47.974;7.824;2023-07-31T07:54:36;21.20;99.90
8214;DHT22;4148;47.974;7.824;2023-07-31T07:57:04;21.40;99.90
8214;DHT22;4148;47.974;7.824;2023-07-31T07:59:32;21.60;99.90
8214;DHT22;4148;47.974;7.824;2023-07-31T08:02:01;21.60;99.90
8214;DHT22;4148;47.974;7.824;2023-07-31T08:04:29;21.50;99.90
8214;DHT22;4148;47.974;7.824;2023-07-31T08:06:57;21.60;99.90
8214;DHT22;4148;47.974;7.824;2023-07-31T08:09:25;21.70;99.90
8214;DHT22;4148;47.974;7.824;2023-07-31T08:11:52;21.80;99.90
8214;DHT22;4148;47.974;7.824;2023-07-31T08:14:21;21.60;99.90
8214;DHT22;4148;47.974;7.824;2023-07-31T08:16:49;21.60;99.90
8214;DHT22;4148;47.974;7.824;2023-07-31T08:19:18;21.40;99.90
8214;DHT22;4148;47.974;7.824;2023-07-31T08:21:46;21.60;99.90
8214;DHT22;4148;47.974;7.824;2023-07-31T08:24:14;21.70;99.90
8214;DHT22;4148;47.974;7.824;2023-07-31T08:26:42;21.80;99.90
8214;DHT22;4148;47.974;7.824;2023-07-31T08:29:09;22.10;99.90
8214;DHT22;4148;47.974;7.824;2023-07-31T08:31:37;22.50;99.90
8214;DHT22;4148;47.974;7.824;2023-07-31T08:34:05;22.90;99.90
8214;DHT22;4148;47.974;7.824;2023-07-31T08:36:35;23.20;99.90
8214;DHT22;4148;47.974;7.824;2023-07-31T08:39:03;23.40;99.90
8214;DHT22;4148;47.974;7.824;2023-07-31T08:41:31;23.70;99.90
8214;DHT22;4148;47.974;7.824;2023-07-31T08:43:59;24.00;99.90
8214;DHT22;4148;47.974;7.824;2023-07-31T08:46:28;24.00;99.90
8214;DHT22;4148;47.974;7.824;2023-07-31T08:48:58;24.00;99.90
8214;DHT22;4148;47.974;7.824;2023-07-31T08:51:26;24.30;99.90
8214;DHT22;4148;47.974;7.824;2023-07-31T08:53:55;24.60;99.90
8214;DHT22;4148;47.974;7.824;2023-07-31T08:56:24;24.80;99.90
8214;DHT22;4148;47.974;7.824;2023-07-31T08:58:54;24.80;99.90
8214;DHT22;4148;47.974;7.824;2023-07-31T09:01:23;24.90;99.90
8214;DHT22;4148;47.974;7.824;2023-07-31T09:03:52;25.20;99.90
8214;DHT22;4148;47.974;7.824;2023-07-31T09:06:23;25.50;99.90
8214;DHT22;4148;47.974;7.824;2023-07-31T09:08:52;25.40;99.90
8214;DHT22;4148;47.974;7.824;2023-07-31T09:11:21;25.90;99.90
8214;DHT22;4148;47.974;7.824;2023-07-31T09:13:52;26.00;99.90
8214;DHT22;4148;47.974;7.824;2023-07-31T09:16:27;26.00;99.90
8214;DHT22;4148;47.974;7.824;2023-07-31T09:18:57;25.40;99.90
8214;DHT22;4148;47.974;7.824;2023-07-31T09:21:25;25.00;99.90
8214;DHT22;4148;47.974;7.824;2023-07-31T09:23:54;24.80;99.90
8214;DHT22;4148;47.974;7.824;2023-07-31T09:26:31;24.90;99.90
8214;DHT22;4148;47.974;7.824;2023-07-31T09:29:00;25.30;99.90
8214;DHT22;4148;47.974;7.824;2023-07-31T09:31:42;25.80;99.90
8214;DHT22;4148;47.974;7.824;2023-07-31T09:34:10;26.20;99.90
8214;DHT22;4148;47.974;7.824;2023-07-31T09:36:41;26.50;99.90
8214;DHT22;4148;47.974;7.824;2023-07-31T09:39:10;26.50;99.90
8214;DHT22;4148;47.974;7.824;2023-07-31T09:41:42;26.80;99.90
8214;DHT22;4148;47.974;7.824;2023-07-31T09:44:10;27.10;99.90
8214;DHT22;4148;47.974;7.824;2023-07-31T09:46:38;26.90;99.90
8214;DHT22;4148;47.974;7.824;2023-07-31T09:49:07;26.80;99.90
8214;DHT22;4148;47.974;7.824;2023-07-31T09:51:37;26.90;99.90
8214;DHT22;4148;47.974;7.824;2023-07-31T09:54:10;27.00;99.90
8214;DHT22;4148;47.974;7.824;2023-07-31T09:56:43;27.20;99.90
8214;DHT22;4148;47.974;7.824;2023-07-31T09:59:12;27.00;99.90
8214;DHT22;4148;47.974;7.824;2023-07-31T10:01:41;27.20;99.90
8214;DHT22;4148;47.974;7.824;2023-07-31T10:04:10;27.20;99.90
8214;DHT22;4148;47.974;7.824;2023-07-31T10:06:39;27.40;99.90
8214;DHT22;4148;47.974;7.824;2023-07-31T10:09:09;27.40;99.90
8214;DHT22;4148;47.974;7.824;2023-07-31T10:11:40;27.40;99.90
8214;DHT22;4148;47.974;7.824;2023-07-31T10:14:12;27.40;99.90
8214;DHT22;4148;47.974;7.824;2023-07-31T10:16:41;27.60;99.90
8214;DHT22;4148;47.974;7.824;2023-07-31T10:19:10;27.90;99.90
8214;DHT22;4148;47.974;7.824;2023-07-31T10:21:38;27.80;99.90
8214;DHT22;4148;47.974;7.824;2023-07-31T10:24:07;27.70;99.90
8214;DHT22;4148;47.974;7.824;2023-07-31T10:26:37;27.80;99.90
8214;DHT22;4148;47.974;7.824;2023-07-31T10:29:07;28.00;99.90
8214;DHT22;4148;47.974;7.824;2023-07-31T10:31:36;28.10;99.90
8214;DHT22;4148;47.974;7.824;2023-07-31T10:34:05;28.10;99.90
8214;DHT22;4148;47.974;7.824;2023-07-31T10:36:33;28.30;99.90
8214;DHT22;4148;47.974;7.824;2023-07-31T10:39:03;28.50;99.90
8214;DHT22;4148;47.974;7.824;2023-07-31T10:41:32;28.60;99.90
8214;DHT22;4148;47.974;7.824;2023-07-31T10:44:00;28.90;99.90
8214;DHT22;4148;47.974;7.824;2023-07-31T10:46:28;28.90;99.90
8214;DHT22;4148;47.974;7.824;2023-07-31T10:49:01;29.00;99.90
8214;DHT22;4148;47.974;7.824;2023-07-31T10:51:32;28.50;99.90
8214;DHT22;4148;47.974;7.824;2023-07-31T10:54:11;28.50;99.90
8214;DHT22;4148;47.974;7.824;2023-07-31T10:56:39;28.80;99.90
8214;DHT22;4148;47.974;7.824;2023-07-31T10:59:08;29.00;99.90
8214;DHT22;4148;47.974;7.824;2023-07-31T11:01:51;29.30;99.90
8214;DHT22;4148;47.974;7.824;2023-07-31T11:04:24;28.80;99.90
8214;DHT22;4148;47.974;7.824;2023-07-31T11:06:57;28.30;99.90
8214;DHT22;4148;47.974;7.824;2023-07-31T11:09:28;28.10;99.90
8214;DHT22;4148;47.974;7.824;2023-07-31T11:11:57;27.80;99.90
8214;DHT22;4148;47.974;7.824;2023-07-31T11:14:25;27.30;99.90
8214;DHT22;4148;47.974;7.824;2023-07-31T11:16:53;26.80;99.90
8214;DHT22;4148;47.974;7.824;2023-07-31T11:19:21;26.30;99.90
8214;DHT22;4148;47.974;7.824;2023-07-31T11:21:52;26.20;99.90
8214;DHT22;4148;47.974;7.824;2023-07-31T11:24:20;26.10;99.90
8214;DHT22;4148;47.974;7.824;2023-07-31T11:26:50;26.00;99.90
8214;DHT22;4148;47.974;7.824;2023-07-31T11:29:18;26.10;99.90
8214;DHT22;4148;47.974;7.824;2023-07-31T11:31:47;26.20;99.90
8214;DHT22;4148;47.974;7.824;2023-07-31T11:34:15;26.30;99.90
8214;DHT22;4148;47.974;7.824;2023-07-31T11:36:54;26.20;99.90
8214;DHT22;4148;47.974;7.824;2023-07-31T11:39:22;25.90;99.90
8214;DHT22;4148;47.974;7.824;2023-07-31T11:41:50;25.80;99.90
8214;DHT22;4148;47.974;7.824;2023-07-31T11:44:18;25.90;99.90
8214;DHT22;4148;47.974;7.824;2023-07-31T11:46:56;25.90;99.90
8214;DHT22;4148;47.974;7.824;2023-07-31T11:49:24;25.80;99.90
8214;DHT22;4148;47.974;7.824;2023-07-31T11:51:54;26.10;99.90
8214;DHT22;4148;47.974;7.824;2023-07-31T11:54:22;26.30;99.90
8214;DHT22;4148;47.974;7.824;2023-07-31T11:56:50;26.40;99.90
8214;DHT22;4148;47.974;7.824;2023-07-31T11:59:18;26.60;99.90
8214;DHT22;4148;47.974;7.824;2023-07-31T12:01:46;27.10;99.90
8214;DHT22;4148;47.974;7.824;2023-07-31T12:04:17;27.00;99.90
8214;DHT22;4148;47.974;7.824;2023-07-31T12:06:46;26.80;99.90
8214;DHT22;4148;47.974;7.824;2023-07-31T12:09:15;26.60;99.90
8214;DHT22;4148;47.974;7.824;2023-07-31T12:11:43;26.60;99.90
8214;DHT22;4148;47.974;7.824;2023-07-31T12:14:19;26.50;99.90
8214;DHT22;4148;47.974;7.824;2023-07-31T12:16:47;26.60;99.90
8214;DHT22;4148;47.974;7.824;2023-07-31T12:19:15;26.30;99.90
8214;DHT22;4148;47.974;7.824;2023-07-31T12:21:46;26.30;99.90
8214;DHT22;4148;47.974;7.824;2023-07-31T12:24:18;26.10;99.90
8214;DHT22;4148;47.974;7.824;2023-07-31T12:26:48;25.80;99.90
8214;DHT22;4148;47.974;7.824;2023-07-31T12:29:16;25.60;99.90
8214;DHT22;4148;47.974;7.824;2023-07-31T12:31:44;25.60;99.90
8214;DHT22;4148;47.974;7.824;2023-07-31T12:34:16;25.80;99.90
8214;DHT22;4148;47.974;7.824;2023-07-31T12:36:45;25.90;99.90
8214;DHT22;4148;47.974;7.824;2023-07-31T12:39:14;25.70;99.90
8214;DHT22;4148;47.974;7.824;2023-07-31T12:41:42;25.80;99.90
8214;DHT22;4148;47.974;7.824;2023-07-31T12:44:10;25.80;99.90
8214;DHT22;4148;47.974;7.824;2023-07-31T12:46:38;25.90;99.90
8214;DHT22;4148;47.974;7.824;2023-07-31T12:49:06;26.00;99.90
8214;DHT22;4148;47.974;7.824;2023-07-31T12:51:34;26.00;99.90
8214;DHT22;4148;47.974;7.824;2023-07-31T12:54:02;26.00;99.90
8214;DHT22;4148;47.974;7.824;2023-07-31T12:56:31;26.10;99.90
8214;DHT22;4148;47.974;7.824;2023-07-31T12:58:59;26.10;99.90
8214;DHT22;4148;47.974;7.824;2023-07-31T13:01:27;26.10;99.90
8214;DHT22;4148;47.974;7.824;2023-07-31T13:03:55;26.10;99.90
8214;DHT22;4148;47.974;7.824;2023-07-31T13:06:24;25.90;99.90
8214;DHT22;4148;47.974;7.824;2023-07-31T13:08:52;25.90;99.90
8214;DHT22;4148;47.974;7.824;2023-07-31T13:11:20;25.90;99.90
8214;DHT22;4148;47.974;7.824;2023-07-31T13:13:49;25.80;99.90
8214;DHT22;4148;47.974;7.824;2023-07-31T13:16:17;25.60;99.90
8214;DHT22;4148;47.974;7.824;2023-07-31T13:18:45;25.50;99.90
8214;DHT22;4148;47.974;7.824;2023-07-31T13:21:13;25.30;99.90
8214;DHT22;4148;47.974;7.824;2023-07-31T13:23:40;25.10;99.90
8214;DHT22;4148;47.974;7.824;2023-07-31T13:26:08;25.10;99.90
8214;DHT22;4148;47.974;7.824;2023-07-31T13:28:36;25.20;99.90
8214;DHT22;4148;47.974;7.824;2023-07-31T13:31:05;25.30;99.90
8214;DHT22;4148;47.974;7.824;2023-07-31T13:33:33;25.30;99.90
8214;DHT22;4148;47.974;7.824;2023-07-31T13:36:04;25.30;99.90
8214;DHT22;4148;47.974;7.824;2023-07-31T13:38:32;25.40;99.90
8214;DHT22;4148;47.974;7.824;2023-07-31T13:41:00;25.50;99.90
8214;DHT22;4148;47.974;7.824;2023-07-31T13:43:28;25.60;99.90
8214;DHT22;4148;47.974;7.824;2023-07-31T13:45:56;25.60;99.90
8214;DHT22;4148;47.974;7.824;2023-07-31T13:48:31;25.50;99.90
8214;DHT22;4148;47.974;7.824;2023-07-31T13:50:59;25.50;99.90
8214;DHT22;4148;47.974;7.824;2023-07-31T13:53:27;25.60;99.90
8214;DHT22;4148;47.974;7.824;2023-07-31T13:55:55;25.70;99.90
8214;DHT22;4148;47.974;7.824;2023-07-31T13:58:23;25.80;99.90
8214;DHT22;4148;47.974;7.824;2023-07-31T14:00:51;26.00;99.90
8214;DHT22;4148;47.974;7.824;2023-07-31T14:03:19;26.00;99.90
8214;DHT22;4148;47.974;7.824;2023-07-31T14:05:48;26.00;99.90
8214;DHT22;4148;47.974;7.824;2023-07-31T14:08:16;25.90;99.90
8214;DHT22;4148;47.974;7.824;2023-07-31T14:10:44;25.90;99.90
8214;DHT22;4148;47.974;7.824;2023-07-31T14:13:12;25.80;99.90
8214;DHT22;4148;47.974;7.824;2023-07-31T14:15:42;25.80;99.90
8214;DHT22;4148;47.974;7.824;2023-07-31T14:18:10;25.60;99.90
8214;DHT22;4148;47.974;7.824;2023-07-31T14:20:38;25.60;99.90
8214;DHT22;4148;47.974;7.824;2023-07-31T14:23:08;25.60;99.90
8214;DHT22;4148;47.974;7.824;2023-07-31T14:25:35;25.60;99.90
8214;DHT22;4148;47.974;7.824;2023-07-31T14:28:03;25.50;99.90
8214;DHT22;4148;47.974;7.824;2023-07-31T14:30:31;25.40;99.90
8214;DHT22;4148;47.974;7.824;2023-07-31T14:32:59;25.30;99.90
8214;DHT22;4148;47.974;7.824;2023-07-31T14:35:29;25.30;99.90
8214;DHT22;4148;47.974;7.824;2023-07-31T14:37:57;25.30;99.90
8214;DHT22;4148;47.974;7.824;2023-07-31T14:40:26;25.30;99.90
8214;DHT22;4148;47.974;7.824;2023-07-31T14:42:54;25.40;99.90
8214;DHT22;4148;47.974;7.824;2023-07-31T14:45:22;25.40;99.90
8214;DHT22;4148;47.974;7.824;2023-07-31T14:47:50;25.40;99.90
8214;DHT22;4148;47.974;7.824;2023-07-31T14:50:19;25.40;99.90
8214;DHT22;4148;47.974;7.824;2023-07-31T14:52:47;25.40;99.90
8214;DHT22;4148;47.974;7.824;2023-07-31T14:55:15;25.40;99.90
8214;DHT22;4148;47.974;7.824;2023-07-31T14:57:44;25.50;99.90
8214;DHT22;4148;47.974;7.824;2023-07-31T15:00:13;25.50;99.90
8214;DHT22;4148;47.974;7.824;2023-07-31T15:02:41;25.40;99.90
8214;DHT22;4148;47.974;7.824;2023-07-31T15:05:09;25.30;99.90
8214;DHT22;4148;47.974;7.824;2023-07-31T15:07:37;25.30;99.90
8214;DHT22;4148;47.974;7.824;2023-07-31T15:10:07;25.30;99.90
8214;DHT22;4148;47.974;7.824;2023-07-31T15:12:35;25.30;99.90
8214;DHT22;4148;47.974;7.824;2023-07-31T15:15:07;25.30;99.90
8214;DHT22;4148;47.974;7.824;2023-07-31T15:17:35;25.40;99.90
8214;DHT22;4148;47.974;7.824;2023-07-31T15:20:03;25.20;99.90
8214;DHT22;4148;47.974;7.824;2023-07-31T15:22:31;25.20;99.90
8214;DHT22;4148;47.974;7.824;2023-07-31T15:24:59;25.10;99.90
8214;DHT22;4148;47.974;7.824;2023-07-31T15:27:27;25.20;99.90
8214;DHT22;4148;47.974;7.824;2023-07-31T15:29:55;25.20;99.90
8214;DHT22;4148;47.974;7.824;2023-07-31T15:32:25;25.20;99.90
8214;DHT22;4148;47.974;7.824;2023-07-31T15:34:53;25.20;99.90
8214;DHT22;4148;47.974;7.824;2023-07-31T15:37:21;25.20;99.90
8214;DHT22;4148;47.974;7.824;2023-07-31T15:39:48;25.20;99.90
8214;DHT22;4148;47.974;7.824;2023-07-31T15:42:16;25.20;99.90
8214;DHT22;4148;47.974;7.824;2023-07-31T15:44:44;25.20;99.90
8214;DHT22;4148;47.974;7.824;2023-07-31T15:47:12;25.10;99.90
8214;DHT22;4148;47.974;7.824;2023-07-31T15:49:41;25.10;99.90
8214;DHT22;4148;47.974;7.824;2023-07-31T15:52:09;25.10;99.90
8214;DHT22;4148;47.974;7.824;2023-07-31T15:54:37;25.10;99.90
8214;DHT22;4148;47.974;7.824;2023-07-31T15:57:06;25.10;99.90
8214;DHT22;4148;47.974;7.824;2023-07-31T15:59:33;24.90;99.90
8214;DHT22;4148;47.974;7.824;2023-07-31T16:02:01;24.90;99.90
8214;DHT22;4148;47.974;7.824;2023-07-31T16:04:29;24.90;99.90
8214;DHT22;4148;47.974;7.824;2023-07-31T16:06:58;24.80;99.90
8214;DHT22;4148;47.974;7.824;2023-07-31T16:09:26;24.70;99.90
8214;DHT22;4148;47.974;7.824;2023-07-31T16:11:54;24.60;99.90
8214;DHT22;4148;47.974;7.824;2023-07-31T16:14:22;24.60;99.90